sensor_id;sensor_type;location;lat;lon;timestamp;pressure;altitude;pressure_sealevel;temperature
71081;BMP180;58740;50.672;18.690;2023-12-22T00:02:18;95924.80;;;5.50
71081;BMP180;58740;50.672;18.690;2023-12-22T00:04:52;95938.40;;;5.50
71081;BMP180;58740;50.672;18.690;2023-12-22T00:07:25;95954.20;;;5.50
71081;BMP180;58740;50.672;18.690;2023-12-22T00:09:58;95955.40;;;5.50
71081;BMP180;58740;50.672;18.690;2023-12-22T00:12:31;95966.20;;;5.50
71081;BMP180;58740;50.672;18.690;2023-12-22T00:15:06;95960.80;;;5.50
71081;BMP180;58740;50.672;18.690;2023-12-22T00:17:39;95957.80;;;5.50
71081;BMP180;58740;50.672;18.690;2023-12-22T00:20:13;95965.60;;;5.50
71081;BMP180;58740;50.672;18.690;2023-12-22T00:22:46;95969.60;;;5.40
71081;BMP180;58740;50.672;18.690;2023-12-22T00:25:20;95963.40;;;5.40
71081;BMP180;58740;50.672;18.690;2023-12-22T00:27:53;95971.00;;;5.40
71081;BMP180;58740;50.672;18.690;2023-12-22T00:30:26;95980.80;;;5.38
71081;BMP180;58740;50.672;18.690;2023-12-22T00:32:59;95982.20;;;5.36
71081;BMP180;58740;50.672;18.690;2023-12-22T00:35:33;95967.20;;;5.30
71081;BMP180;58740;50.672;18.690;2023-12-22T00:38:07;95978.60;;;5.30
71081;BMP180;58740;50.672;18.690;2023-12-22T00:40:42;95980.40;;;5.30
71081;BMP180;58740;50.672;18.690;2023-12-22T00:43:16;95988.80;;;5.30
71081;BMP180;58740;50.672;18.690;2023-12-22T00:45:49;95995.80;;;5.30
71081;BMP180;58740;50.672;18.690;2023-12-22T00:48:22;95991.20;;;5.30
71081;BMP180;58740;50.672;18.690;2023-12-22T00:50:55;95995.80;;;5.30
71081;BMP180;58740;50.672;18.690;2023-12-22T00:53:28;95998.60;;;5.30
71081;BMP180;58740;50.672;18.690;2023-12-22T00:56:02;95994.40;;;5.30
71081;BMP180;58740;50.672;18.690;2023-12-22T00:58:35;95997.40;;;5.30
71081;BMP180;58740;50.672;18.690;2023-12-22T01:01:08;96000.40;;;5.30
71081;BMP180;58740;50.672;18.690;2023-12-22T01:03:42;95997.20;;;5.26
71081;BMP180;58740;50.672;18.690;2023-12-22T01:06:15;95997.20;;;5.30
71081;BMP180;58740;50.672;18.690;2023-12-22T01:08:48;96001.80;;;5.28
71081;BMP180;58740;50.672;18.690;2023-12-22T01:11:22;96003.60;;;5.30
71081;BMP180;58740;50.672;18.690;2023-12-22T01:13:56;96001.40;;;5.28
71081;BMP180;58740;50.672;18.690;2023-12-22T01:16:29;95998.00;;;5.30
71081;BMP180;58740;50.672;18.690;2023-12-22T01:19:02;95998.60;;;5.28
71081;BMP180;58740;50.672;18.690;2023-12-22T01:21:35;95991.80;;;5.30
71081;BMP180;58740;50.672;18.690;2023-12-22T01:24:09;95984.00;;;5.26
71081;BMP180;58740;50.672;18.690;2023-12-22T01:26:42;95978.20;;;5.28
71081;BMP180;58740;50.672;18.690;2023-12-22T01:29:15;95980.20;;;5.22
71081;BMP180;58740;50.672;18.690;2023-12-22T01:31:49;95978.00;;;5.20
71081;BMP180;58740;50.672;18.690;2023-12-22T01:34:22;95970.60;;;5.20
71081;BMP180;58740;50.672;18.690;2023-12-22T01:36:55;95969.00;;;5.20
71081;BMP180;58740;50.672;18.690;2023-12-22T01:39:28;95974.80;;;5.20
71081;BMP180;58740;50.672;18.690;2023-12-22T01:42:02;95979.80;;;5.20
71081;BMP180;58740;50.672;18.690;2023-12-22T01:44:35;95970.00;;;5.20
71081;BMP180;58740;50.672;18.690;2023-12-22T01:47:08;95970.40;;;5.20
71081;BMP180;58740;50.672;18.690;2023-12-22T01:49:42;95963.60;;;5.20
71081;BMP180;58740;50.672;18.690;2023-12-22T01:52:15;95953.80;;;5.20
71081;BMP180;58740;50.672;18.690;2023-12-22T01:54:50;95943.40;;;5.20
71081;BMP180;58740;50.672;18.690;2023-12-22T01:57:24;95955.40;;;5.20
71081;BMP180;58740;50.672;18.690;2023-12-22T01:59:59;95950.20;;;5.20
71081;BMP180;58740;50.672;18.690;2023-12-22T02:02:32;95962.40;;;5.20
71081;BMP180;58740;50.672;18.690;2023-12-22T02:05:08;95963.80;;;5.20
71081;BMP180;58740;50.672;18.690;2023-12-22T02:07:45;95969.60;;;5.18
71081;BMP180;58740;50.672;18.690;2023-12-22T02:10:19;95964.80;;;5.12
71081;BMP180;58740;50.672;18.690;2023-12-22T02:12:52;95977.00;;;5.10
71081;BMP180;58740;50.672;18.690;2023-12-22T02:15:26;95977.00;;;5.10
71081;BMP180;58740;50.672;18.690;2023-12-22T02:18:07;95992.00;;;5.10
71081;BMP180;58740;50.672;18.690;2023-12-22T02:20:42;95993.00;;;5.10
71081;BMP180;58740;50.672;18.690;2023-12-22T02:23:16;95991.20;;;5.02
71081;BMP180;58740;50.672;18.690;2023-12-22T02:25:49;96000.80;;;5.00
71081;BMP180;58740;50.672;18.690;2023-12-22T02:28:29;95993.60;;;5.00
71081;BMP180;58740;50.672;18.690;2023-12-22T02:31:12;95994.60;;;4.98
71081;BMP180;58740;50.672;18.690;2023-12-22T02:33:53;95993.60;;;4.90
71081;BMP180;58740;50.672;18.690;2023-12-22T02:36:29;95993.60;;;4.90
71081;BMP180;58740;50.672;18.690;2023-12-22T02:39:05;95988.20;;;4.90
71081;BMP180;58740;50.672;18.690;2023-12-22T02:41:40;95983.20;;;4.90
71081;BMP180;58740;50.672;18.690;2023-12-22T02:44:14;95994.80;;;4.90
71081;BMP180;58740;50.672;18.690;2023-12-22T02:46:47;95991.60;;;4.86
71081;BMP180;58740;50.672;18.690;2023-12-22T02:49:21;95989.80;;;4.80
71081;BMP180;58740;50.672;18.690;2023-12-22T02:51:54;95984.20;;;4.80
71081;BMP180;58740;50.672;18.690;2023-12-22T02:54:28;95992.80;;;4.80
71081;BMP180;58740;50.672;18.690;2023-12-22T02:57:04;95992.20;;;4.80
71081;BMP180;58740;50.672;18.690;2023-12-22T02:59:37;95992.20;;;4.80
71081;BMP180;58740;50.672;18.690;2023-12-22T03:02:11;95997.60;;;4.80
71081;BMP180;58740;50.672;18.690;2023-12-22T03:04:44;96011.20;;;4.80
71081;BMP180;58740;50.672;18.690;2023-12-22T03:07:18;96009.60;;;4.74
71081;BMP180;58740;50.672;18.690;2023-12-22T03:09:51;96008.20;;;4.70
71081;BMP180;58740;50.672;18.690;2023-12-22T03:12:25;96006.60;;;4.70
71081;BMP180;58740;50.672;18.690;2023-12-22T03:14:58;95999.60;;;4.70
71081;BMP180;58740;50.672;18.690;2023-12-22T03:17:31;96001.40;;;4.70
71081;BMP180;58740;50.672;18.690;2023-12-22T03:20:05;95994.20;;;4.60
71081;BMP180;58740;50.672;18.690;2023-12-22T03:22:38;96001.20;;;4.60
71081;BMP180;58740;50.672;18.690;2023-12-22T03:25:12;95996.00;;;4.60
71081;BMP180;58740;50.672;18.690;2023-12-22T03:27:45;95987.60;;;4.60
71081;BMP180;58740;50.672;18.690;2023-12-22T03:30:19;95992.60;;;4.60
71081;BMP180;58740;50.672;18.690;2023-12-22T03:32:52;95994.80;;;4.60
71081;BMP180;58740;50.672;18.690;2023-12-22T03:35:26;95990.20;;;4.52
71081;BMP180;58740;50.672;18.690;2023-12-22T03:37:59;95998.40;;;4.50
71081;BMP180;58740;50.672;18.690;2023-12-22T03:40:33;96000.40;;;4.50
71081;BMP180;58740;50.672;18.690;2023-12-22T03:43:07;95995.60;;;4.50
71081;BMP180;58740;50.672;18.690;2023-12-22T03:45:40;95979.20;;;4.50
71081;BMP180;58740;50.672;18.690;2023-12-22T03:48:13;95977.60;;;4.50
71081;BMP180;58740;50.672;18.690;2023-12-22T03:50:46;95980.00;;;4.50
71081;BMP180;58740;50.672;18.690;2023-12-22T03:53:20;95979.80;;;4.50
71081;BMP180;58740;50.672;18.690;2023-12-22T03:55:53;95985.20;;;4.50
71081;BMP180;58740;50.672;18.690;2023-12-22T03:58:26;95993.20;;;4.52
71081;BMP180;58740;50.672;18.690;2023-12-22T04:01:01;95991.00;;;4.50
71081;BMP180;58740;50.672;18.690;2023-12-22T04:03:35;96009.40;;;4.50
71081;BMP180;58740;50.672;18.690;2023-12-22T04:06:08;96022.40;;;4.46
71081;BMP180;58740;50.672;18.690;2023-12-22T04:08:42;95996.00;;;4.40
71081;BMP180;58740;50.672;18.690;2023-12-22T04:11:15;95994.20;;;4.30
71081;BMP180;58740;50.672;18.690;2023-12-22T04:13:48;96008.20;;;4.26
71081;BMP180;58740;50.672;18.690;2023-12-22T04:16:21;96015.80;;;4.20
71081;BMP180;58740;50.672;18.690;2023-12-22T04:18:54;96008.80;;;4.10
71081;BMP180;58740;50.672;18.690;2023-12-22T04:21:28;96017.20;;;4.00
71081;BMP180;58740;50.672;18.690;2023-12-22T04:24:01;96021.20;;;3.90
71081;BMP180;58740;50.672;18.690;2023-12-22T04:26:34;96025.00;;;3.90
71081;BMP180;58740;50.672;18.690;2023-12-22T04:29:07;96020.20;;;3.80
71081;BMP180;58740;50.672;18.690;2023-12-22T04:31:40;96031.80;;;3.74
71081;BMP180;58740;50.672;18.690;2023-12-22T04:34:16;96036.20;;;3.70
71081;BMP180;58740;50.672;18.690;2023-12-22T04:36:49;96015.20;;;3.70
71081;BMP180;58740;50.672;18.690;2023-12-22T04:39:22;96019.60;;;3.70
71081;BMP180;58740;50.672;18.690;2023-12-22T04:41:58;96001.00;;;3.60
71081;BMP180;58740;50.672;18.690;2023-12-22T04:44:31;96008.60;;;3.60
71081;BMP180;58740;50.672;18.690;2023-12-22T04:47:05;96002.40;;;3.58
71081;BMP180;58740;50.672;18.690;2023-12-22T04:49:38;96006.00;;;3.50
71081;BMP180;58740;50.672;18.690;2023-12-22T04:52:12;96015.20;;;3.50
71081;BMP180;58740;50.672;18.690;2023-12-22T04:54:45;96026.60;;;3.40
71081;BMP180;58740;50.672;18.690;2023-12-22T04:57:19;96033.00;;;3.40
71081;BMP180;58740;50.672;18.690;2023-12-22T04:59:54;96038.60;;;3.40
71081;BMP180;58740;50.672;18.690;2023-12-22T05:02:27;96032.60;;;3.40
71081;BMP180;58740;50.672;18.690;2023-12-22T05:05:01;96036.20;;;3.32
71081;BMP180;58740;50.672;18.690;2023-12-22T05:07:35;96039.80;;;3.30
71081;BMP180;58740;50.672;18.690;2023-12-22T05:10:09;96041.20;;;3.30
71081;BMP180;58740;50.672;18.690;2023-12-22T05:12:43;96052.80;;;3.30
71081;BMP180;58740;50.672;18.690;2023-12-22T05:15:16;96053.40;;;3.30
71081;BMP180;58740;50.672;18.690;2023-12-22T05:17:49;96051.20;;;3.30
71081;BMP180;58740;50.672;18.690;2023-12-22T05:20:23;96046.00;;;3.28
71081;BMP180;58740;50.672;18.690;2023-12-22T05:22:56;96042.60;;;3.30
71081;BMP180;58740;50.672;18.690;2023-12-22T05:25:30;96047.60;;;3.30
71081;BMP180;58740;50.672;18.690;2023-12-22T05:28:04;96054.60;;;3.30
71081;BMP180;58740;50.672;18.690;2023-12-22T05:30:37;96065.00;;;3.30
71081;BMP180;58740;50.672;18.690;2023-12-22T05:33:11;96067.80;;;3.30
71081;BMP180;58740;50.672;18.690;2023-12-22T05:35:44;96072.20;;;3.30
71081;BMP180;58740;50.672;18.690;2023-12-22T05:38:17;96069.60;;;3.30
71081;BMP180;58740;50.672;18.690;2023-12-22T05:40:51;96062.40;;;3.30
71081;BMP180;58740;50.672;18.690;2023-12-22T05:43:24;96058.00;;;3.30
71081;BMP180;58740;50.672;18.690;2023-12-22T05:45:57;96075.40;;;3.30
71081;BMP180;58740;50.672;18.690;2023-12-22T05:48:35;96083.40;;;3.30
71081;BMP180;58740;50.672;18.690;2023-12-22T05:51:08;96084.00;;;3.30
71081;BMP180;58740;50.672;18.690;2023-12-22T05:53:45;96077.60;;;3.30
71081;BMP180;58740;50.672;18.690;2023-12-22T05:56:22;96081.80;;;3.30
71081;BMP180;58740;50.672;18.690;2023-12-22T05:58:55;96083.60;;;3.30
71081;BMP180;58740;50.672;18.690;2023-12-22T06:01:29;96077.40;;;3.30
71081;BMP180;58740;50.672;18.690;2023-12-22T06:04:02;96084.40;;;3.30
71081;BMP180;58740;50.672;18.690;2023-12-22T06:06:37;96082.20;;;3.28
71081;BMP180;58740;50.672;18.690;2023-12-22T06:09:11;96084.20;;;3.22
71081;BMP180;58740;50.672;18.690;2023-12-22T06:11:44;96092.40;;;3.24
71081;BMP180;58740;50.672;18.690;2023-12-22T06:14:19;96093.40;;;3.20
71081;BMP180;58740;50.672;18.690;2023-12-22T06:16:52;96088.20;;;3.20
71081;BMP180;58740;50.672;18.690;2023-12-22T06:19:28;96077.40;;;3.20
71081;BMP180;58740;50.672;18.690;2023-12-22T06:22:02;96089.00;;;3.20
71081;BMP180;58740;50.672;18.690;2023-12-22T06:24:37;96081.80;;;3.20
71081;BMP180;58740;50.672;18.690;2023-12-22T06:27:10;96083.40;;;3.20
71081;BMP180;58740;50.672;18.690;2023-12-22T06:29:43;96072.80;;;3.20
71081;BMP180;58740;50.672;18.690;2023-12-22T06:32:16;96071.40;;;3.20
71081;BMP180;58740;50.672;18.690;2023-12-22T06:34:50;96082.80;;;3.20
71081;BMP180;58740;50.672;18.690;2023-12-22T06:37:23;96082.60;;;3.20
71081;BMP180;58740;50.672;18.690;2023-12-22T06:39:56;96081.60;;;3.22
71081;BMP180;58740;50.672;18.690;2023-12-22T06:42:30;96079.80;;;3.26
71081;BMP180;58740;50.672;18.690;2023-12-22T06:45:03;96088.80;;;3.30
71081;BMP180;58740;50.672;18.690;2023-12-22T06:47:37;96092.20;;;3.30
71081;BMP180;58740;50.672;18.690;2023-12-22T06:50:11;96094.60;;;3.30
71081;BMP180;58740;50.672;18.690;2023-12-22T06:52:45;96100.40;;;3.30
71081;BMP180;58740;50.672;18.690;2023-12-22T06:55:18;96103.00;;;3.30
71081;BMP180;58740;50.672;18.690;2023-12-22T06:57:52;96115.40;;;3.38
71081;BMP180;58740;50.672;18.690;2023-12-22T07:00:26;96112.60;;;3.40
71081;BMP180;58740;50.672;18.690;2023-12-22T07:03:00;96111.60;;;3.40
71081;BMP180;58740;50.672;18.690;2023-12-22T07:05:35;96111.60;;;3.40
71081;BMP180;58740;50.672;18.690;2023-12-22T07:08:10;96124.20;;;3.40
71081;BMP180;58740;50.672;18.690;2023-12-22T07:10:43;96122.60;;;3.40
71081;BMP180;58740;50.672;18.690;2023-12-22T07:13:18;96120.40;;;3.42
71081;BMP180;58740;50.672;18.690;2023-12-22T07:15:51;96118.40;;;3.46
71081;BMP180;58740;50.672;18.690;2023-12-22T07:18:26;96123.80;;;3.48
71081;BMP180;58740;50.672;18.690;2023-12-22T07:21:02;96123.00;;;3.50
71081;BMP180;58740;50.672;18.690;2023-12-22T07:23:36;96132.20;;;3.48
71081;BMP180;58740;50.672;18.690;2023-12-22T07:26:09;96132.40;;;3.50
71081;BMP180;58740;50.672;18.690;2023-12-22T07:28:43;96120.00;;;3.50
71081;BMP180;58740;50.672;18.690;2023-12-22T07:31:17;96123.80;;;3.50
71081;BMP180;58740;50.672;18.690;2023-12-22T07:33:51;96128.40;;;3.50
71081;BMP180;58740;50.672;18.690;2023-12-22T07:36:24;96119.20;;;3.56
71081;BMP180;58740;50.672;18.690;2023-12-22T07:38:57;96122.00;;;3.60
71081;BMP180;58740;50.672;18.690;2023-12-22T07:41:32;96124.40;;;3.60
71081;BMP180;58740;50.672;18.690;2023-12-22T07:44:07;96131.00;;;3.60
71081;BMP180;58740;50.672;18.690;2023-12-22T07:46:40;96127.60;;;3.70
71081;BMP180;58740;50.672;18.690;2023-12-22T07:49:14;96130.60;;;3.70
71081;BMP180;58740;50.672;18.690;2023-12-22T07:51:48;96125.20;;;3.70
71081;BMP180;58740;50.672;18.690;2023-12-22T07:54:23;96122.80;;;3.70
71081;BMP180;58740;50.672;18.690;2023-12-22T07:56:57;96128.20;;;3.78
71081;BMP180;58740;50.672;18.690;2023-12-22T07:59:31;96122.80;;;3.80
71081;BMP180;58740;50.672;18.690;2023-12-22T08:02:05;96128.00;;;3.80
71081;BMP180;58740;50.672;18.690;2023-12-22T08:04:38;96129.80;;;3.80
71081;BMP180;58740;50.672;18.690;2023-12-22T08:07:12;96138.00;;;3.84
71081;BMP180;58740;50.672;18.690;2023-12-22T08:09:45;96137.00;;;3.90
71081;BMP180;58740;50.672;18.690;2023-12-22T08:12:18;96139.80;;;3.86
71081;BMP180;58740;50.672;18.690;2023-12-22T08:14:51;96135.40;;;3.82
71081;BMP180;58740;50.672;18.690;2023-12-22T08:17:25;96133.80;;;3.80
71081;BMP180;58740;50.672;18.690;2023-12-22T08:19:58;96144.60;;;3.82
71081;BMP180;58740;50.672;18.690;2023-12-22T08:22:42;96143.80;;;3.80
71081;BMP180;58740;50.672;18.690;2023-12-22T08:25:18;96138.40;;;3.82
71081;BMP180;58740;50.672;18.690;2023-12-22T08:27:53;96146.20;;;3.84
71081;BMP180;58740;50.672;18.690;2023-12-22T08:30:26;96150.20;;;3.90
71081;BMP180;58740;50.672;18.690;2023-12-22T08:32:59;96146.00;;;3.90
71081;BMP180;58740;50.672;18.690;2023-12-22T08:35:32;96140.00;;;3.90
71081;BMP180;58740;50.672;18.690;2023-12-22T08:38:07;96141.40;;;3.90
71081;BMP180;58740;50.672;18.690;2023-12-22T08:40:40;96147.40;;;3.90
71081;BMP180;58740;50.672;18.690;2023-12-22T08:43:14;96145.80;;;3.88
71081;BMP180;58740;50.672;18.690;2023-12-22T08:45:47;96151.20;;;3.90
71081;BMP180;58740;50.672;18.690;2023-12-22T08:48:20;96149.20;;;3.84
71081;BMP180;58740;50.672;18.690;2023-12-22T08:50:54;96132.20;;;3.80
71081;BMP180;58740;50.672;18.690;2023-12-22T08:53:27;96127.80;;;3.80
71081;BMP180;58740;50.672;18.690;2023-12-22T08:56:02;96133.20;;;3.80
71081;BMP180;58740;50.672;18.690;2023-12-22T08:58:36;96131.00;;;3.80
71081;BMP180;58740;50.672;18.690;2023-12-22T09:01:09;96127.60;;;3.80
71081;BMP180;58740;50.672;18.690;2023-12-22T09:03:47;96127.60;;;3.80
71081;BMP180;58740;50.672;18.690;2023-12-22T09:06:22;96132.00;;;3.86
71081;BMP180;58740;50.672;18.690;2023-12-22T09:08:57;96141.20;;;3.90
71081;BMP180;58740;50.672;18.690;2023-12-22T09:11:30;96144.40;;;3.90
71081;BMP180;58740;50.672;18.690;2023-12-22T09:14:03;96134.40;;;3.90
71081;BMP180;58740;50.672;18.690;2023-12-22T09:16:38;96142.80;;;3.90
71081;BMP180;58740;50.672;18.690;2023-12-22T09:19:11;96139.80;;;3.90
71081;BMP180;58740;50.672;18.690;2023-12-22T09:21:45;96154.20;;;3.80
71081;BMP180;58740;50.672;18.690;2023-12-22T09:24:18;96147.60;;;3.80
71081;BMP180;58740;50.672;18.690;2023-12-22T09:26:51;96157.00;;;3.80
71081;BMP180;58740;50.672;18.690;2023-12-22T09:29:24;96162.60;;;3.70
71081;BMP180;58740;50.672;18.690;2023-12-22T09:31:58;96153.00;;;3.70
71081;BMP180;58740;50.672;18.690;2023-12-22T09:34:32;96167.20;;;3.70
71081;BMP180;58740;50.672;18.690;2023-12-22T09:37:05;96166.60;;;3.70
71081;BMP180;58740;50.672;18.690;2023-12-22T09:39:38;96164.40;;;3.70
71081;BMP180;58740;50.672;18.690;2023-12-22T09:42:12;96159.80;;;3.70
71081;BMP180;58740;50.672;18.690;2023-12-22T09:44:49;96154.80;;;3.70
71081;BMP180;58740;50.672;18.690;2023-12-22T09:47:25;96147.00;;;3.78
71081;BMP180;58740;50.672;18.690;2023-12-22T09:50:02;96137.00;;;3.78
71081;BMP180;58740;50.672;18.690;2023-12-22T09:52:39;96141.20;;;3.80
71081;BMP180;58740;50.672;18.690;2023-12-22T09:55:13;96150.20;;;3.80
71081;BMP180;58740;50.672;18.690;2023-12-22T09:57:48;96142.20;;;3.80
71081;BMP180;58740;50.672;18.690;2023-12-22T10:00:25;96156.40;;;3.80
71081;BMP180;58740;50.672;18.690;2023-12-22T10:03:00;96150.20;;;3.80
71081;BMP180;58740;50.672;18.690;2023-12-22T10:05:34;96148.80;;;3.80
71081;BMP180;58740;50.672;18.690;2023-12-22T10:08:09;96148.80;;;3.80
71081;BMP180;58740;50.672;18.690;2023-12-22T10:10:44;96151.00;;;3.80
71081;BMP180;58740;50.672;18.690;2023-12-22T10:13:19;96147.20;;;3.80
71081;BMP180;58740;50.672;18.690;2023-12-22T10:15:53;96147.00;;;3.80
71081;BMP180;58740;50.672;18.690;2023-12-22T10:18:28;96159.00;;;3.80
71081;BMP180;58740;50.672;18.690;2023-12-22T10:21:01;96167.00;;;3.80
71081;BMP180;58740;50.672;18.690;2023-12-22T10:23:35;96165.20;;;3.70
71081;BMP180;58740;50.672;18.690;2023-12-22T10:26:08;96153.60;;;3.70
71081;BMP180;58740;50.672;18.690;2023-12-22T10:28:45;96141.60;;;3.60
71081;BMP180;58740;50.672;18.690;2023-12-22T10:31:19;96137.00;;;3.60
71081;BMP180;58740;50.672;18.690;2023-12-22T10:33:53;96140.20;;;3.50
71081;BMP180;58740;50.672;18.690;2023-12-22T10:36:26;96135.80;;;3.50
71081;BMP180;58740;50.672;18.690;2023-12-22T10:39:00;96141.00;;;3.50
71081;BMP180;58740;50.672;18.690;2023-12-22T10:41:34;96128.60;;;3.50
71081;BMP180;58740;50.672;18.690;2023-12-22T10:44:07;96135.60;;;3.60
71081;BMP180;58740;50.672;18.690;2023-12-22T10:46:41;96151.80;;;3.60
71081;BMP180;58740;50.672;18.690;2023-12-22T10:49:15;96131.00;;;3.70
71081;BMP180;58740;50.672;18.690;2023-12-22T10:51:49;96129.80;;;3.70
71081;BMP180;58740;50.672;18.690;2023-12-22T10:54:22;96128.60;;;3.70
71081;BMP180;58740;50.672;18.690;2023-12-22T10:56:59;96127.20;;;3.70
71081;BMP180;58740;50.672;18.690;2023-12-22T10:59:34;96132.20;;;3.70
71081;BMP180;58740;50.672;18.690;2023-12-22T11:02:19;96125.60;;;3.70
71081;BMP180;58740;50.672;18.690;2023-12-22T11:05:02;96132.60;;;3.72
71081;BMP180;58740;50.672;18.690;2023-12-22T11:07:37;96141.80;;;3.70
71081;BMP180;58740;50.672;18.690;2023-12-22T11:10:13;96151.20;;;3.70
71081;BMP180;58740;50.672;18.690;2023-12-22T11:12:49;96142.20;;;3.70
71081;BMP180;58740;50.672;18.690;2023-12-22T11:15:24;96130.60;;;3.68
71081;BMP180;58740;50.672;18.690;2023-12-22T11:17:59;96147.40;;;3.64
71081;BMP180;58740;50.672;18.690;2023-12-22T11:20:36;96148.00;;;3.62
71081;BMP180;58740;50.672;18.690;2023-12-22T11:23:11;96137.80;;;3.60
71081;BMP180;58740;50.672;18.690;2023-12-22T11:25:46;96140.20;;;3.60
71081;BMP180;58740;50.672;18.690;2023-12-22T11:28:23;96126.80;;;3.60
71081;BMP180;58740;50.672;18.690;2023-12-22T11:30:58;96116.20;;;3.60
71081;BMP180;58740;50.672;18.690;2023-12-22T11:33:34;96122.00;;;3.60
71081;BMP180;58740;50.672;18.690;2023-12-22T11:36:09;96128.60;;;3.60
71081;BMP180;58740;50.672;18.690;2023-12-22T11:38:45;96118.80;;;3.60
71081;BMP180;58740;50.672;18.690;2023-12-22T11:41:25;96113.60;;;3.66
71081;BMP180;58740;50.672;18.690;2023-12-22T11:44:00;96116.40;;;3.70
71081;BMP180;58740;50.672;18.690;2023-12-22T11:46:35;96108.60;;;3.70
71081;BMP180;58740;50.672;18.690;2023-12-22T11:49:09;96104.60;;;3.76
71081;BMP180;58740;50.672;18.690;2023-12-22T11:51:48;96092.00;;;3.80
71081;BMP180;58740;50.672;18.690;2023-12-22T11:54:48;96107.40;;;3.80
71081;BMP180;58740;50.672;18.690;2023-12-22T11:57:37;96097.20;;;3.76
71081;BMP180;58740;50.672;18.690;2023-12-22T12:00:41;96099.40;;;3.80
71081;BMP180;58740;50.672;18.690;2023-12-22T12:03:14;96101.60;;;3.80
71081;BMP180;58740;50.672;18.690;2023-12-22T12:05:50;96108.60;;;3.80
71081;BMP180;58740;50.672;18.690;2023-12-22T12:08:43;96109.40;;;3.80
71081;BMP180;58740;50.672;18.690;2023-12-22T12:11:17;96106.80;;;3.80
71081;BMP180;58740;50.672;18.690;2023-12-22T12:13:51;96105.60;;;3.80
71081;BMP180;58740;50.672;18.690;2023-12-22T12:16:27;96106.00;;;3.80
71081;BMP180;58740;50.672;18.690;2023-12-22T12:19:01;96114.00;;;3.80
71081;BMP180;58740;50.672;18.690;2023-12-22T12:21:35;96099.80;;;3.78
71081;BMP180;58740;50.672;18.690;2023-12-22T12:24:09;96088.60;;;3.70
71081;BMP180;58740;50.672;18.690;2023-12-22T12:26:44;96095.60;;;3.70
71081;BMP180;58740;50.672;18.690;2023-12-22T12:29:18;96095.60;;;3.64
71081;BMP180;58740;50.672;18.690;2023-12-22T12:31:53;96105.80;;;3.60
71081;BMP180;58740;50.672;18.690;2023-12-22T12:34:35;96108.00;;;3.60
71081;BMP180;58740;50.672;18.690;2023-12-22T12:37:09;96133.60;;;3.66
71081;BMP180;58740;50.672;18.690;2023-12-22T12:39:44;96139.20;;;3.70
71081;BMP180;58740;50.672;18.690;2023-12-22T12:42:21;96154.00;;;3.70
71081;BMP180;58740;50.672;18.690;2023-12-22T12:44:55;96159.00;;;3.66
71081;BMP180;58740;50.672;18.690;2023-12-22T12:47:29;96155.20;;;3.68
71081;BMP180;58740;50.672;18.690;2023-12-22T12:50:04;96161.40;;;3.66
71081;BMP180;58740;50.672;18.690;2023-12-22T12:52:37;96155.00;;;3.64
71081;BMP180;58740;50.672;18.690;2023-12-22T12:55:12;96154.40;;;3.70
71081;BMP180;58740;50.672;18.690;2023-12-22T12:57:46;96150.20;;;3.68
71081;BMP180;58740;50.672;18.690;2023-12-22T13:00:27;96147.20;;;3.70
71081;BMP180;58740;50.672;18.690;2023-12-22T13:03:04;96149.80;;;3.70
71081;BMP180;58740;50.672;18.690;2023-12-22T13:05:39;96148.20;;;3.70
71081;BMP180;58740;50.672;18.690;2023-12-22T13:08:14;96156.60;;;3.74
71081;BMP180;58740;50.672;18.690;2023-12-22T13:10:47;96150.20;;;3.76
71081;BMP180;58740;50.672;18.690;2023-12-22T13:13:21;96143.80;;;3.76
71081;BMP180;58740;50.672;18.690;2023-12-22T13:15:54;96142.20;;;3.76
71081;BMP180;58740;50.672;18.690;2023-12-22T13:18:27;96144.20;;;3.78
71081;BMP180;58740;50.672;18.690;2023-12-22T13:21:01;96137.60;;;3.80
71081;BMP180;58740;50.672;18.690;2023-12-22T13:23:35;96143.80;;;3.80
71081;BMP180;58740;50.672;18.690;2023-12-22T13:26:18;96134.80;;;3.80
71081;BMP180;58740;50.672;18.690;2023-12-22T13:28:58;96139.00;;;3.80
71081;BMP180;58740;50.672;18.690;2023-12-22T13:31:33;96116.40;;;3.80
71081;BMP180;58740;50.672;18.690;2023-12-22T13:34:11;96140.80;;;3.80
71081;BMP180;58740;50.672;18.690;2023-12-22T13:36:45;96135.20;;;3.86
71081;BMP180;58740;50.672;18.690;2023-12-22T13:39:19;96130.80;;;3.90
71081;BMP180;58740;50.672;18.690;2023-12-22T13:41:52;96133.40;;;3.90
71081;BMP180;58740;50.672;18.690;2023-12-22T13:44:26;96124.40;;;3.90
71081;BMP180;58740;50.672;18.690;2023-12-22T13:47:05;96126.00;;;3.90
71081;BMP180;58740;50.672;18.690;2023-12-22T13:49:40;96132.00;;;3.90
71081;BMP180;58740;50.672;18.690;2023-12-22T13:52:29;96126.20;;;3.92
71081;BMP180;58740;50.672;18.690;2023-12-22T13:55:11;96130.00;;;3.94
71081;BMP180;58740;50.672;18.690;2023-12-22T13:57:45;96138.80;;;3.94
71081;BMP180;58740;50.672;18.690;2023-12-22T14:00:31;96129.20;;;3.94
71081;BMP180;58740;50.672;18.690;2023-12-22T14:03:06;96136.20;;;3.90
71081;BMP180;58740;50.672;18.690;2023-12-22T14:05:40;96135.00;;;3.90
71081;BMP180;58740;50.672;18.690;2023-12-22T14:08:14;96131.00;;;3.90
71081;BMP180;58740;50.672;18.690;2023-12-22T14:10:51;96129.20;;;3.90
71081;BMP180;58740;50.672;18.690;2023-12-22T14:13:25;96130.00;;;3.90
71081;BMP180;58740;50.672;18.690;2023-12-22T14:15:59;96123.40;;;3.90
71081;BMP180;58740;50.672;18.690;2023-12-22T14:18:32;96130.20;;;3.90
71081;BMP180;58740;50.672;18.690;2023-12-22T14:21:07;96127.20;;;3.90
71081;BMP180;58740;50.672;18.690;2023-12-22T14:23:40;96127.00;;;3.90
71081;BMP180;58740;50.672;18.690;2023-12-22T14:26:13;96127.80;;;3.90
71081;BMP180;58740;50.672;18.690;2023-12-22T14:28:48;96114.40;;;3.80
71081;BMP180;58740;50.672;18.690;2023-12-22T14:31:23;96128.60;;;3.80
71081;BMP180;58740;50.672;18.690;2023-12-22T14:33:57;96128.40;;;3.80
71081;BMP180;58740;50.672;18.690;2023-12-22T14:36:30;96119.80;;;3.80
71081;BMP180;58740;50.672;18.690;2023-12-22T14:39:03;96127.40;;;3.80
71081;BMP180;58740;50.672;18.690;2023-12-22T14:41:37;96124.00;;;3.76
71081;BMP180;58740;50.672;18.690;2023-12-22T14:44:11;96129.40;;;3.70
71081;BMP180;58740;50.672;18.690;2023-12-22T14:46:44;96122.80;;;3.70
71081;BMP180;58740;50.672;18.690;2023-12-22T14:49:18;96113.40;;;3.70
71081;BMP180;58740;50.672;18.690;2023-12-22T14:51:52;96115.40;;;3.70